Time;durP1;ratioP1;P1;durP2;ratioP2;P2;SDS_P1;SDS_P2;PMS_P1;PMS_P2;Temp;Humidity;BMP_temperature;BMP_pressure;BME280_temperature;BME280_humidity;BME280_pressure;Samples;Min_cycle;Max_cycle;Signal;HPM_P1;HPM_P2
2022/05/25 00:01:01;;;;;;;1999.90;999.90;;;10.80;99.90;;;;;;5110408;28;20044;-82
2022/05/25 00:03:29;;;;;;;1999.90;999.90;;;10.80;99.90;;;;;;5109493;28;20389;-82
2022/05/25 00:05:57;;;;;;;1999.90;954.95;;;10.80;99.90;;;;;;5093359;28;20054;-82
2022/05/25 00:08:23;;;;;;;1999.90;999.90;;;12.10;99.90;;;;;;5093064;28;20087;-83
2022/05/25 00:10:49;;;;;;;1999.90;999.90;;;10.70;99.90;;;;;;5110021;28;20047;-82
2022/05/25 00:13:15;;;;;;;1999.90;999.90;;;11.30;99.90;;;;;;5110946;28;20130;-83
2022/05/25 00:15:41;;;;;;;1999.90;999.90;;;10.80;99.90;;;;;;5075440;28;20151;-82
2022/05/25 00:18:06;;;;;;;1895.03;767.40;;;10.80;99.90;;;;;;5109576;28;20368;-82
2022/05/25 00:20:33;;;;;;;1999.90;999.90;;;10.80;99.90;;;;;;5110080;28;20043;-82
2022/05/25 00:22:59;;;;;;;1999.90;999.90;;;11.50;99.90;;;;;;5076270;28;20134;-82
2022/05/25 00:25:33;;;;;;;1999.90;999.90;;;11.10;1.00;;;;;;5073663;28;20130;-83
2022/05/25 00:27:59;;;;;;;1999.90;999.90;;;10.80;1.00;;;;;;5108856;28;20035;-82
2022/05/25 00:30:25;;;;;;;1999.90;999.90;;;11.40;1.00;;;;;;5108669;28;20047;-84
2022/05/25 00:32:53;;;;;;;1999.90;999.90;;;11.20;1.00;;;;;;5092409;28;20051;-82
2022/05/25 00:35:21;;;;;;;1999.90;999.90;;;10.70;1.00;;;;;;5091601;28;20059;-82
2022/05/25 00:37:47;;;;;;;1999.90;999.90;;;10.70;38.70;;;;;;5109492;28;20042;-81
2022/05/25 00:40:17;;;;;;;1999.90;999.90;;;12.90;99.90;;;;;;5110442;28;20039;-85
2022/05/25 00:42:43;;;;;;;1999.90;999.90;;;10.80;99.90;;;;;;5075635;28;20048;-82
2022/05/25 00:45:10;;;;;;;1999.90;999.90;;;10.80;99.90;;;;;;5092125;28;20055;-82
2022/05/25 00:47:38;;;;;;;1999.90;999.90;;;10.80;99.90;;;;;;5109668;28;20115;-82
2022/05/25 00:50:06;;;;;;;1999.90;999.90;;;11.20;99.90;;;;;;5109481;28;20035;-82
2022/05/25 00:52:32;;;;;;;1999.90;999.90;;;10.80;99.90;;;;;;5092720;28;20048;-82
2022/05/25 00:55:01;;;;;;;1999.90;781.67;;;10.70;99.90;;;;;;5109993;28;20047;-83
2022/05/25 00:57:43;;;;;;;1999.90;999.90;;;10.70;99.90;;;;;;5108973;28;20040;-84
2022/05/25 01:00:20;;;;;;;1999.90;999.90;;;10.60;94.10;;;;;;5090667;28;20485;-82
2022/05/25 01:02:53;;;;;;;1999.90;999.90;;;10.70;99.90;;;;;;5110299;28;20139;-82
2022/05/25 01:05:26;;;;;;;1999.90;999.90;;;10.70;99.90;;;;;;5092640;28;20356;-82
2022/05/25 01:08:03;;;;;;;1999.90;999.90;;;10.70;99.90;;;;;;5113777;28;20051;-82
2022/05/25 01:10:34;;;;;;;1724.00;796.08;;;11.80;99.90;;;;;;5096225;28;20184;-83
2022/05/25 01:13:03;;;;;;;1999.90;999.90;;;10.60;99.90;;;;;;5096535;28;20127;-82
2022/05/25 01:15:42;;;;;;;1999.90;999.90;;;10.60;99.90;;;;;;5095575;28;20050;-82
2022/05/25 01:18:31;;;;;;;1999.90;999.90;;;10.60;99.90;;;;;;5113943;28;20203;-81
2022/05/25 01:21:30;;;;;;;1999.90;999.90;;;10.60;99.90;;;;;;5113989;28;20044;-82
2022/05/25 01:24:09;;;;;;;1999.90;999.90;;;10.50;99.90;;;;;;5045063;28;20158;-83
2022/05/25 01:26:53;;;;;;;1999.90;999.90;;;10.50;96.00;;;;;;5113169;28;20554;-84
2022/05/25 01:29:22;;;;;;;1999.90;999.90;;;10.50;99.90;;;;;;5095235;28;20511;-82
2022/05/25 01:32:07;;;;;;;1999.90;999.90;;;10.50;99.90;;;;;;5113053;28;20054;-82
2022/05/25 01:34:43;;;;;;;1999.90;729.50;;;10.50;99.90;;;;;;5095529;28;20052;-83
2022/05/25 01:37:16;;;;;;;1999.90;999.90;;;10.50;99.90;;;;;;5094716;28;20043;-81
2022/05/25 01:39:47;;;;;;;1999.90;999.90;;;10.50;99.90;;;;;;5112464;28;20081;-84
2022/05/25 01:42:36;;;;;;;1999.90;999.90;;;10.50;99.90;;;;;;5078880;28;20086;-82
2022/05/25 01:45:07;;;;;;;1999.90;999.90;;;10.60;99.90;;;;;;5095261;28;20047;-82
2022/05/25 01:47:35;;;;;;;1999.90;999.90;;;10.60;99.90;;;;;;5111002;28;20285;-82
2022/05/25 01:50:12;;;;;;;1999.90;999.90;;;10.60;99.90;;;;;;5093775;28;20059;-83
2022/05/25 01:52:45;;;;;;;1999.90;999.90;;;10.60;99.90;;;;;;5076989;28;20112;-84
2022/05/25 01:55:28;;;;;;;1999.90;999.90;;;10.60;99.90;;;;;;5112732;28;20070;-82
2022/05/25 01:58:02;;;;;;;1999.90;999.90;;;10.50;99.90;;;;;;5093096;28;20051;-82
2022/05/25 02:00:35;;;;;;;1999.90;999.90;;;10.50;99.90;;;;;;5078152;28;20130;-82
2022/05/25 02:06:05;;;;;;;1999.90;999.90;;;10.50;99.90;;;;;;5091263;28;20048;-82
2022/05/25 02:08:56;;;;;;;1999.90;999.90;;;10.40;99.90;;;;;;5091165;28;20044;-82
2022/05/25 02:11:34;;;;;;;1824.35;808.80;;;10.50;99.90;;;;;;5092488;28;20044;-83
2022/05/25 02:14:03;;;;;;;1999.90;999.90;;;10.00;99.90;;;;;;5074448;28;20069;-82
2022/05/25 02:16:54;;;;;;;1999.90;999.90;;;11.20;99.90;;;;;;5091382;28;20070;-83
2022/05/25 02:19:37;;;;;;;1999.90;999.90;;;10.40;99.90;;;;;;5092176;28;20084;-83
2022/05/25 02:22:25;;;;;;;1999.90;999.90;;;10.40;99.90;;;;;;5090071;28;20396;-82
2022/05/25 02:24:56;;;;;;;1999.90;999.90;;;10.40;99.90;;;;;;5091105;28;20079;-82
2022/05/25 02:27:29;;;;;;;1999.90;999.90;;;12.00;99.90;;;;;;5090848;28;20096;-82
2022/05/25 02:30:17;;;;;;;1999.90;999.90;;;11.20;99.90;;;;;;5073671;28;20052;-82
2022/05/25 02:32:52;;;;;;;1999.90;999.90;;;10.30;99.90;;;;;;5090359;28;20488;-82
2022/05/25 02:35:21;;;;;;;1999.90;999.90;;;10.90;99.90;;;;;;5092273;28;20147;-81
2022/05/25 02:37:49;;;;;;;1999.90;999.90;;;10.20;99.90;;;;;;5090145;28;20241;-84
2022/05/25 02:40:15;;;;;;;1999.90;999.90;;;10.90;99.90;;;;;;5091569;28;20076;-82
2022/05/25 02:42:41;;;;;;;1999.90;999.90;;;10.30;99.90;;;;;;5091218;28;20387;-84
2022/05/25 02:45:09;;;;;;;1999.90;999.90;;;10.30;99.90;;;;;;5090007;28;20062;-82
2022/05/25 02:47:35;;;;;;;1999.90;999.90;;;10.30;99.90;;;;;;5089499;28;20421;-83
2022/05/25 02:50:01;;;;;;;1999.90;999.90;;;11.40;99.90;;;;;;5090890;28;20044;-81
2022/05/25 02:52:27;;;;;;;1644.45;627.15;;;11.10;99.90;;;;;;5090350;28;20040;-82
2022/05/25 02:54:53;;;;;;;1999.90;999.90;;;10.30;99.90;;;;;;5090248;28;20050;-82
2022/05/25 02:57:18;;;;;;;1703.47;787.35;;;10.20;99.90;;;;;;5090447;28;20090;-82
2022/05/25 02:59:44;;;;;;;1999.90;999.90;;;10.20;99.90;;;;;;5073029;28;20080;-83
2022/05/25 03:02:10;;;;;;;1999.90;999.90;;;11.10;99.90;;;;;;5090146;28;20048;-82
2022/05/25 03:04:37;;;;;;;1999.90;999.90;;;10.20;99.90;;;;;;5091984;28;20044;-81
2022/05/25 03:07:04;;;;;;;1999.90;999.90;;;12.30;99.90;;;;;;5090151;28;20075;-81
2022/05/25 03:09:30;;;;;;;1999.90;999.90;;;10.20;99.90;;;;;;5073103;28;20040;-82
2022/05/25 03:11:55;;;;;;;1999.90;999.90;;;12.00;99.90;;;;;;5090663;28;20044;-82
2022/05/25 03:14:21;;;;;;;1999.90;999.90;;;11.80;99.90;;;;;;5090638;28;20040;-83
2022/05/25 03:16:47;;;;;;;1644.45;627.33;;;11.90;99.90;;;;;;5091190;28;20087;-82
2022/05/25 03:19:13;;;;;;;1999.90;999.90;;;10.20;99.90;;;;;;5089558;28;20204;-81
2022/05/25 03:21:38;;;;;;;1999.90;999.90;;;11.30;99.90;;;;;;5090915;28;20222;-81
2022/05/25 03:24:04;;;;;;;1999.90;999.90;;;10.20;99.90;;;;;;5089317;28;20040;-82
2022/05/25 03:26:31;;;;;;;1999.90;999.90;;;10.20;98.20;;;;;;5091371;28;20055;-82
2022/05/25 03:28:57;;;;;;;1999.90;999.90;;;11.50;37.80;;;;;;5090137;28;20056;-82
2022/05/25 03:31:23;;;;;;;1999.90;999.90;;;10.10;7.90;;;;;;5090455;28;20047;-81
2022/05/25 03:33:48;;;;;;;1999.90;999.90;;;10.20;2.90;;;;;;5090211;28;20044;-82
2022/05/25 03:36:14;;;;;;;1999.90;999.90;;;10.70;1.00;;;;;;5090634;28;20040;-82
2022/05/25 03:38:39;;;;;;;1999.90;999.90;;;10.20;1.00;;;;;;5071949;28;20044;-82
2022/05/25 03:41:05;;;;;;;1999.90;999.90;;;12.10;1.00;;;;;;5089509;28;20043;-82
2022/05/25 03:43:34;;;;;;;1736.75;794.22;;;10.60;1.00;;;;;;5072864;28;20147;-82
2022/05/25 03:46:01;;;;;;;1999.90;999.90;;;10.20;1.00;;;;;;5089967;28;20052;-81
2022/05/25 03:48:27;;;;;;;1999.90;999.90;;;10.20;1.00;;;;;;5089460;28;20051;-82
2022/05/25 03:50:52;;;;;;;1999.90;999.90;;;10.10;99.90;;;;;;5088807;28;20400;-82
2022/05/25 03:53:18;;;;;;;1139.18;531.25;;;10.20;99.90;;;;;;5089804;28;20052;-81
2022/05/25 03:55:44;;;;;;;1999.90;999.90;;;10.20;99.90;;;;;;5088149;28;20052;-82
2022/05/25 03:58:10;;;;;;;1999.90;999.90;;;10.20;99.90;;;;;;5089088;28;20044;-82
2022/05/25 04:00:36;;;;;;;1999.90;999.90;;;10.10;99.90;;;;;;5088660;28;20473;-81
2022/05/25 04:03:03;;;;;;;1999.90;999.90;;;12.30;99.90;;;;;;5088751;28;20113;-82
2022/05/25 04:05:30;;;;;;;1999.90;999.90;;;10.20;99.90;;;;;;5088915;28;20431;-82
2022/05/25 04:07:58;;;;;;;1999.90;999.90;;;12.00;99.90;;;;;;5088779;28;20131;-83
2022/05/25 04:10:25;;;;;;;1999.90;999.90;;;10.40;99.90;;;;;;5090154;28;20054;-82
2022/05/25 04:12:51;;;;;;;1999.90;999.90;;;11.70;99.90;;;;;;5090110;28;20048;-85
2022/05/25 04:15:20;;;;;;;1999.90;999.90;;;10.20;99.90;;;;;;5089065;28;20823;-81
2022/05/25 04:17:46;;;;;;;1999.90;999.90;;;10.30;99.90;;;;;;5090833;28;20054;-82
2022/05/25 04:20:13;;;;;;;1999.90;999.90;;;11.20;99.90;;;;;;5088456;28;20115;-83
2022/05/25 04:22:39;;;;;;;1999.90;999.90;;;10.20;99.90;;;;;;5072854;28;20036;-82
2022/05/25 04:25:11;;;;;;;1999.90;999.90;;;10.30;99.90;;;;;;5089383;28;20446;-82
2022/05/25 04:27:39;;;;;;;1999.90;999.90;;;10.30;99.90;;;;;;5089126;28;20560;-82
2022/05/25 04:30:06;;;;;;;1999.90;999.90;;;10.40;99.90;;;;;;5088542;28;20510;-82
2022/05/25 04:32:32;;;;;;;1999.90;999.90;;;9.50;99.90;;;;;;5088616;28;20054;-83
2022/05/25 04:34:58;;;;;;;1999.90;999.90;;;10.70;94.50;;;;;;5087630;28;20127;-82
2022/05/25 04:40:11;;;;;;;1999.90;999.90;;;10.30;1.00;;;;;;5089355;28;20051;-81
2022/05/25 04:42:37;;;;;;;1999.90;999.90;;;10.40;1.00;;;;;;5094578;28;20054;-81
2022/05/25 04:45:04;;;;;;;1999.90;999.90;;;10.40;1.00;;;;;;5092677;28;20044;-83
2022/05/25 04:47:31;;;;;;;1999.90;999.90;;;10.40;99.90;;;;;;5092946;28;20494;-81
2022/05/25 04:49:58;;;;;;;1999.90;999.90;;;10.50;99.90;;;;;;5092153;28;20056;-83
2022/05/25 04:52:24;;;;;;;1999.90;999.90;;;10.50;99.90;;;;;;5075654;28;20524;-82
2022/05/25 04:54:50;;;;;;;1599.65;438.90;;;10.90;99.90;;;;;;5092516;28;20048;-83
2022/05/25 04:57:19;;;;;;;1999.90;999.90;;;10.60;99.90;;;;;;5094205;28;20055;-82
2022/05/25 04:59:55;;;;;;;1999.90;999.90;;;10.60;99.90;;;;;;5092936;28;20044;-84
2022/05/25 05:02:21;;;;;;;1999.90;999.90;;;10.70;99.90;;;;;;5101899;28;20415;-82
2022/05/25 05:04:48;;;;;;;1999.90;636.38;;;10.70;99.90;;;;;;5113652;28;20504;-84
2022/05/25 05:07:14;;;;;;;1999.90;999.90;;;11.00;99.90;;;;;;5113997;28;20703;-82
2022/05/25 05:09:42;;;;;;;1999.90;999.90;;;10.80;99.90;;;;;;5095782;28;20096;-84
2022/05/25 05:12:09;;;;;;;1999.90;999.90;;;10.80;99.90;;;;;;5096244;28;20050;-83
2022/05/25 05:14:37;;;;;;;1999.90;445.45;;;10.80;94.50;;;;;;5061547;28;20116;-82
2022/05/25 05:17:06;;;;;;;1999.90;999.90;;;12.60;99.90;;;;;;5094823;28;20522;-82
2022/05/25 05:19:32;;;;;;;1999.90;999.90;;;10.90;9.10;;;;;;5113447;28;20093;-83
2022/05/25 05:21:58;;;;;;;1999.90;999.90;;;11.00;1.00;;;;;;5095891;28;20105;-84
2022/05/25 05:24:27;;;;;;;1999.90;999.90;;;11.00;1.00;;;;;;5096241;28;20051;-84
2022/05/25 05:26:53;;;;;;;1999.90;999.90;;;11.00;1.00;;;;;;5112969;28;20052;-81
2022/05/25 05:29:19;;;;;;;1506.70;278.15;;;11.40;1.00;;;;;;5113916;28;20126;-82
2022/05/25 05:31:45;;;;;;;1999.90;999.90;;;11.20;1.00;;;;;;5095135;28;20127;-83
2022/05/25 05:34:11;;;;;;;1999.90;999.90;;;11.20;1.00;;;;;;5113689;28;20088;-82
2022/05/25 05:36:46;;;;;;;1999.90;999.90;;;11.20;1.00;;;;;;5079282;28;20059;-81
2022/05/25 05:39:15;;;;;;;1999.90;999.90;;;11.30;1.00;;;;;;5093876;28;20079;-81
2022/05/25 05:41:46;;;;;;;1999.90;999.90;;;12.10;1.00;;;;;;5096057;28;20126;-81
2022/05/25 05:44:19;;;;;;;1999.90;999.90;;;11.30;1.00;;;;;;5095617;28;20482;-81
2022/05/25 05:46:47;;;;;;;1999.90;999.90;;;12.60;1.00;;;;;;5078441;28;20039;-82
2022/05/25 05:49:13;;;;;;;1999.90;999.90;;;11.50;1.00;;;;;;5113494;28;20052;-82
2022/05/25 05:51:40;;;;;;;1999.90;999.90;;;11.50;1.00;;;;;;5113649;28;20485;-82
2022/05/25 05:54:06;;;;;;;1475.05;585.65;;;11.50;1.00;;;;;;5094282;28;20087;-83
2022/05/25 05:56:33;;;;;;;1999.90;623.95;;;11.90;1.00;;;;;;5112995;28;20090;-82
2022/05/25 05:59:00;;;;;;;1999.90;999.90;;;11.80;1.00;;;;;;5095642;28;20059;-85
2022/05/25 06:01:25;;;;;;;1999.90;999.90;;;11.80;99.90;;;;;;5095212;28;20043;-81
2022/05/25 06:03:51;;;;;;;1999.90;999.90;;;11.90;99.90;;;;;;5095754;28;20375;-82
2022/05/25 06:06:18;;;;;;;1999.90;999.90;;;12.00;99.90;;;;;;5078518;28;20039;-82
2022/05/25 06:08:46;;;;;;;1999.90;999.90;;;12.00;99.90;;;;;;5095816;28;20043;-82
2022/05/25 06:11:21;;;;;;;1999.90;999.90;;;12.00;99.90;;;;;;5078420;28;20142;-82
2022/05/25 06:13:47;;;;;;;1999.90;999.90;;;12.00;99.90;;;;;;5062392;28;20046;-84
2022/05/25 06:21:41;;;;;;;1999.90;999.90;;;12.40;99.90;;;;;;5094796;28;20060;-82
2022/05/25 06:24:07;;;;;;;1999.90;999.90;;;12.50;99.90;;;;;;5095262;28;20138;-82
2022/05/25 06:26:33;;;;;;;1871.93;343.17;;;12.60;99.90;;;;;;5113531;28;20043;-81
2022/05/25 06:29:00;;;;;;;1999.90;999.90;;;12.60;99.90;;;;;;5113332;28;20051;-83
2022/05/25 06:31:27;;;;;;;1999.90;999.90;;;12.90;99.90;;;;;;5077752;28;20426;-82
2022/05/25 06:33:53;;;;;;;1999.90;874.30;;;12.80;99.90;;;;;;5113278;28;20530;-83
2022/05/25 06:36:22;;;;;;;1999.90;999.90;;;12.80;99.90;;;;;;5113227;28;20360;-82
2022/05/25 06:38:48;;;;;;;1999.90;999.90;;;12.90;99.90;;;;;;5093596;28;20051;-85
2022/05/25 06:41:15;;;;;;;1999.90;673.10;;;13.00;99.90;;;;;;5094304;28;20047;-82
2022/05/25 06:43:40;;;;;;;1999.90;629.35;;;13.00;99.90;;;;;;5113539;28;20126;-83
2022/05/25 06:46:08;;;;;;;1999.90;999.90;;;13.10;99.90;;;;;;5094683;28;20118;-83
2022/05/25 06:48:34;;;;;;;1999.90;824.55;;;13.20;99.90;;;;;;5113609;28;20066;-83
2022/05/25 06:51:13;;;;;;;1999.90;894.72;;;13.90;99.90;;;;;;5113845;28;20047;-83
2022/05/25 06:53:39;;;;;;;1999.90;640.83;;;13.30;99.90;;;;;;5114552;28;20464;-83
2022/05/25 06:56:08;;;;;;;1999.90;999.90;;;13.20;99.90;;;;;;5093626;28;20043;-86
2022/05/25 06:58:34;;;;;;;1999.90;410.33;;;13.40;99.90;;;;;;5093564;28;20048;-84
2022/05/25 07:01:01;;;;;;;1999.90;807.28;;;13.60;99.90;;;;;;5089727;28;20039;-83
2022/05/25 07:03:27;;;;;;;1999.90;678.85;;;13.80;99.90;;;;;;5075317;28;20063;-84
2022/05/25 07:05:53;;;;;;;1999.90;812.33;;;15.00;78.30;;;;;;5111343;28;20051;-83
2022/05/25 07:08:22;;;;;;;1999.90;635.63;;;16.70;26.10;;;;;;5111238;28;20472;-83
2022/05/25 07:10:54;;;;;;;1545.22;999.90;;;17.90;3.80;;;;;;5111381;28;20039;-83
2022/05/25 07:13:20;;;;;;;1999.90;999.90;;;18.90;1.00;;;;;;5111350;28;20092;-83
2022/05/25 07:15:46;;;;;;;1625.15;999.90;;;19.40;1.00;;;;;;5110784;28;20048;-83
2022/05/25 07:18:12;;;;;;;1456.45;999.90;;;20.20;1.00;;;;;;5092685;28;20100;-83
2022/05/25 07:20:37;;;;;;;994.92;899.30;;;19.30;1.00;;;;;;5111584;28;20480;-83
2022/05/25 07:23:03;;;;;;;1023.70;919.22;;;21.00;1.00;;;;;;5076929;28;20039;-84
2022/05/25 07:25:29;;;;;;;987.45;897.45;;;20.60;1.00;;;;;;5093410;28;20395;-84
2022/05/25 07:27:55;;;;;;;773.53;698.85;;;21.10;1.00;;;;;;5076980;28;20130;-82
2022/05/25 07:30:21;;;;;;;894.00;809.80;;;21.60;1.00;;;;;;5092981;28;20054;-83
2022/05/25 07:32:47;;;;;;;769.15;709.22;;;21.50;1.00;;;;;;5093453;28;20138;-83
2022/05/25 07:35:15;;;;;;;943.17;847.15;;;21.90;1.00;;;;;;5076838;28;20043;-82
2022/05/25 07:37:45;;;;;;;500.33;461.58;;;22.10;1.00;;;;;;5075731;28;20092;-83
2022/05/25 07:40:15;;;;;;;631.85;582.75;;;21.80;1.00;;;;;;5111677;28;20043;-83
2022/05/25 07:42:44;;;;;;;621.13;576.58;;;21.80;1.00;;;;;;5077281;28;20176;-83
2022/05/25 07:45:10;;;;;;;939.92;765.28;;;23.60;1.00;;;;;;5093381;28;20126;-83
2022/05/25 07:47:36;;;;;;;691.10;640.28;;;22.70;1.00;;;;;;5111765;28;20433;-83
2022/05/25 07:50:04;;;;;;;504.10;467.35;;;22.60;1.00;;;;;;5093930;28;20109;-83
2022/05/25 07:52:32;;;;;;;;;;;22.70;1.00;;;;;;5111776;28;20047;-83
2022/05/25 07:54:58;;;;;;;440.88;407.85;;;22.70;1.00;;;;;;5093451;28;19932;-83
2022/05/25 07:57:24;;;;;;;436.05;406.00;;;23.20;1.00;;;;;;5076123;28;20062;-83
2022/05/25 07:59:49;;;;;;;498.10;463.10;;;21.90;1.00;;;;;;5092769;28;20113;-83
2022/05/25 08:07:57;;;;;;;407.63;368.65;;;23.20;1.00;;;;;;5093813;28;20435;-82
2022/05/25 08:10:25;;;;;;;211.38;197.65;;;22.10;1.00;;;;;;5075821;28;20047;-82
2022/05/25 08:12:55;;;;;;;251.25;233.32;;;21.80;1.00;;;;;;5111573;28;20044;-84
2022/05/25 08:15:25;;;;;;;219.73;203.82;;;22.00;1.00;;;;;;5075652;28;20058;-83
2022/05/25 08:17:51;;;;;;;391.05;362.45;;;23.00;1.00;;;;;;5093731;28;20047;-83
2022/05/25 08:20:19;;;;;;;305.83;282.80;;;22.90;1.00;;;;;;5111344;28;20081;-82
2022/05/25 08:22:44;;;;;;;431.95;400.25;;;23.20;1.00;;;;;;5076593;28;20349;-82
2022/05/25 08:25:12;;;;;;;376.23;348.63;;;23.70;1.00;;;;;;5092984;28;20054;-83
2022/05/25 08:27:41;;;;;;;292.05;269.23;;;24.90;1.00;;;;;;5093356;28;20044;-83
2022/05/25 08:30:09;;;;;;;305.10;282.67;;;24.50;99.90;;;;;;5093236;28;20376;-83
2022/05/25 08:32:36;;;;;;;339.48;314.30;;;24.10;99.90;;;;;;5092710;28;20545;-83
2022/05/25 08:35:03;;;;;;;312.45;289.55;;;23.90;99.90;;;;;;5093419;28;20180;-83
2022/05/25 08:37:28;;;;;;;488.88;453.38;;;23.00;99.90;;;;;;5111029;28;20138;-85
2022/05/25 08:39:54;;;;;;;479.73;443.70;;;23.30;99.90;;;;;;5110166;28;20146;-82
2022/05/25 08:42:24;;;;;;;476.13;442.17;;;22.60;99.90;;;;;;5110987;28;20051;-82
2022/05/25 08:44:52;;;;;;;976.30;693.15;;;23.20;99.90;;;;;;5111212;28;20105;-83
2022/05/25 08:47:18;;;;;;;651.85;604.15;;;21.60;99.90;;;;;;5111067;28;20058;-82
2022/05/25 08:49:49;;;;;;;593.42;550.30;;;20.90;1.00;;;;;;5093439;28;20044;-82
2022/05/25 08:52:32;;;;;;;1430.43;771.17;;;21.10;1.00;;;;;;5093491;28;20123;-83
2022/05/25 08:55:02;;;;;;;656.50;587.67;;;20.90;99.90;;;;;;5093293;28;20082;-82
2022/05/25 08:57:41;;;;;;;530.00;490.63;;;21.20;99.90;;;;;;5093188;28;20052;-82
2022/05/25 09:00:13;;;;;;;736.63;680.03;;;21.20;99.90;;;;;;5092683;28;20051;-81
2022/05/25 09:02:39;;;;;;;1297.97;809.10;;;20.80;99.90;;;;;;5110746;28;20052;-82
2022/05/25 09:05:19;;;;;;;718.25;662.05;;;20.10;99.90;;;;;;5110873;28;20052;-82
2022/05/25 09:07:50;;;;;;;758.38;684.75;;;20.20;1.00;;;;;;5111544;28;20039;-83
2022/05/25 09:10:18;;;;;;;627.17;581.30;;;20.10;1.00;;;;;;5092595;28;20047;-82
2022/05/25 09:13:00;;;;;;;738.53;650.65;;;20.70;1.00;;;;;;5093331;28;20104;-83
2022/05/25 09:15:30;;;;;;;675.47;628.75;;;21.10;1.00;;;;;;5092067;28;20044;-83
2022/05/25 09:18:05;;;;;;;654.95;605.35;;;21.40;1.00;;;;;;5111217;28;20039;-83
2022/05/25 09:20:36;;;;;;;623.22;579.22;;;21.50;99.90;;;;;;5091880;28;20498;-86
2022/05/25 09:23:02;;;;;;;565.33;526.58;;;21.20;99.90;;;;;;5092686;28;20051;-83
2022/05/25 09:25:29;;;;;;;588.15;546.80;;;20.80;99.90;;;;;;5075683;28;20132;-83
2022/05/25 09:28:07;;;;;;;612.83;565.60;;;20.60;99.90;;;;;;5094664;28;20047;-82
2022/05/25 09:30:37;;;;;;;;;;;19.80;99.90;;;;;;5096342;28;20482;-82
2022/05/25 09:33:18;;;;;;;923.72;733.33;;;19.70;99.90;;;;;;5096379;28;20428;-82
2022/05/25 09:36:08;;;;;;;810.22;738.00;;;19.40;1.00;;;;;;5114323;28;20484;-82
2022/05/25 09:38:43;;;;;;;834.33;753.08;;;19.40;1.00;;;;;;5094869;28;20040;-84
2022/05/25 09:41:18;;;;;;;662.15;603.67;;;18.90;1.00;;;;;;5095528;28;20055;-81
2022/05/25 09:43:44;;;;;;;684.70;627.33;;;18.80;1.00;;;;;;5095836;28;20230;-83
2022/05/25 09:46:28;;;;;;;602.72;553.22;;;19.30;1.00;;;;;;5095857;28;20043;-84
2022/05/25 09:49:02;;;;;;;758.80;666.42;;;19.90;1.00;;;;;;5114428;28;20039;-82
2022/05/25 09:51:36;;;;;;;1999.90;903.35;;;20.10;99.90;;;;;;5113792;28;20043;-82
2022/05/25 09:54:18;;;;;;;790.58;678.80;;;19.90;1.00;;;;;;5079075;28;20483;-83
2022/05/25 09:56:52;;;;;;;735.45;670.88;;;19.70;1.00;;;;;;5095108;28;20051;-82
2022/05/25 09:59:34;;;;;;;667.40;596.92;;;19.60;1.00;;;;;;5114174;28;20051;-83
2022/05/25 10:02:00;;;;;;;502.13;463.92;;;20.20;1.00;;;;;;5113407;28;20066;-83
2022/05/25 10:04:51;;;;;;;754.05;677.35;;;20.60;1.00;;;;;;5078879;28;20073;-84
2022/05/25 10:07:38;;;;;;;743.70;668.55;;;20.90;99.90;;;;;;5096140;28;20142;-82
2022/05/25 10:10:08;;;;;;;742.65;685.60;;;21.10;99.90;;;;;;5079117;28;20047;-84
2022/05/25 10:12:43;;;;;;;678.05;629.97;;;21.00;99.90;;;;;;5095354;28;20067;-82
2022/05/25 10:15:15;;;;;;;760.38;690.88;;;20.80;99.90;;;;;;5095486;28;20048;-82
2022/05/25 10:17:46;;;;;;;573.55;531.13;;;20.60;99.90;;;;;;5095273;28;20039;-83
2022/05/25 10:20:24;;;;;;;750.70;671.65;;;20.80;99.90;;;;;;5078415;28;20062;-83
2022/05/25 10:23:20;;;;;;;538.22;498.70;;;20.10;99.90;;;;;;5113263;28;20470;-82
2022/05/25 10:25:55;;;;;;;589.95;546.53;;;20.20;99.90;;;;;;5094727;28;20059;-83
2022/05/25 10:28:31;;;;;;;632.20;579.13;;;20.50;99.90;;;;;;5095627;28;20048;-81
2022/05/25 10:36:57;;;;;;;527.90;490.38;;;19.80;99.90;;;;;;5094987;28;20101;-82
2022/05/25 10:39:29;;;;;;;564.72;518.70;;;19.90;1.00;;;;;;5093205;28;20039;-82
2022/05/25 10:42:16;;;;;;;953.63;687.17;;;19.80;99.90;;;;;;5094864;28;20235;-82
2022/05/25 10:45:10;;;;;;;688.45;634.22;;;19.60;99.90;;;;;;5094884;28;20056;-83
2022/05/25 10:47:57;;;;;;;1196.22;774.10;;;19.90;99.90;;;;;;5094968;28;20051;-82
2022/05/25 10:50:30;;;;;;;890.08;760.97;;;19.90;99.90;;;;;;5095031;28;20153;-83
2022/05/25 10:53:06;;;;;;;662.17;613.30;;;20.50;99.90;;;;;;5112893;28;20043;-82
2022/05/25 10:55:43;;;;;;;630.38;583.28;;;20.70;99.90;;;;;;5112622;28;20044;-82
2022/05/25 10:58:42;;;;;;;643.13;584.85;;;20.60;99.90;;;;;;5094946;28;20048;-82
2022/05/25 11:01:42;;;;;;;696.63;646.72;;;20.60;99.90;;;;;;5112507;28;20114;-82
2022/05/25 11:04:18;;;;;;;645.45;596.97;;;19.80;99.90;;;;;;5077519;28;20100;-83
2022/05/25 11:06:49;;;;;;;726.08;662.88;;;20.10;99.90;;;;;;5112530;28;20113;-83
2022/05/25 11:09:33;;;;;;;1025.18;764.78;;;20.20;99.90;;;;;;5094780;28;20062;-81
2022/05/25 11:12:11;;;;;;;935.63;801.70;;;19.90;99.90;;;;;;5112106;28;20128;-83
2022/05/25 11:14:47;;;;;;;742.55;677.83;;;19.60;99.90;;;;;;5093627;28;20047;-83
2022/05/25 11:17:30;;;;;;;996.83;706.60;;;19.40;99.90;;;;;;5094575;28;20104;-83
2022/05/25 11:20:16;;;;;;;783.58;712.88;;;19.20;99.90;;;;;;5094284;28;20040;-83
2022/05/25 11:22:45;;;;;;;704.15;641.97;;;18.80;99.90;;;;;;5112354;28;20452;-83
2022/05/25 11:25:31;;;;;;;623.13;576.55;;;18.90;99.90;;;;;;5111916;28;20364;-84
2022/05/25 11:28:16;;;;;;;728.58;673.78;;;19.20;99.90;;;;;;5094452;28;20070;-83
2022/05/25 11:30:56;;;;;;;653.38;601.80;;;19.60;99.90;;;;;;5093557;28;20337;-83
2022/05/25 11:33:39;;;;;;;812.20;678.42;;;20.20;99.90;;;;;;5094230;28;20047;-83
2022/05/25 11:36:25;;;;;;;640.35;588.58;;;20.80;99.90;;;;;;5094209;28;20048;-83
2022/05/25 11:39:05;;;;;;;1999.90;999.90;;;20.30;99.90;;;;;;5092471;28;20051;-82
2022/05/25 11:41:53;;;;;;;710.55;656.30;;;19.30;99.90;;;;;;5076617;28;20044;-84
2022/05/25 11:44:50;;;;;;;1111.75;826.03;;;19.20;99.90;;;;;;5093294;28;20104;-82
2022/05/25 11:47:55;;;;;;;869.58;790.17;;;18.90;1.00;;;;;;5111781;28;20109;-81
2022/05/25 11:50:28;;;;;;;1999.90;997.45;;;18.30;1.00;;;;;;5080670;28;20047;-84
2022/05/25 11:53:18;;;;;;;1999.90;930.22;;;17.70;1.00;;;;;;5111273;28;20230;-82
2022/05/25 11:56:30;;;;;;;1999.90;999.90;;;16.80;1.00;;;;;;5093544;28;20047;-81
2022/05/25 11:59:10;;;;;;;1999.90;999.90;;;15.50;57.30;;;;;;5092677;28;20452;-81
2022/05/25 12:02:08;;;;;;;1999.90;999.90;;;15.10;99.90;;;;;;5092993;28;20047;-81
2022/05/25 12:04:56;;;;;;;1999.90;848.45;;;14.90;99.90;;;;;;5071829;28;20399;-82
2022/05/25 12:07:47;;;;;;;1999.90;957.80;;;14.40;99.90;;;;;;5093766;28;20040;-82
2022/05/25 12:10:37;;;;;;;1999.90;999.90;;;14.50;99.90;;;;;;5093839;28;20127;-82
2022/05/25 12:13:25;;;;;;;1999.90;856.63;;;14.70;99.90;;;;;;5093475;28;20052;-82
2022/05/25 12:16:13;;;;;;;1999.90;913.28;;;15.10;99.90;;;;;;5092876;28;20518;-81
2022/05/25 12:18:39;;;;;;;1999.90;569.60;;;15.50;99.90;;;;;;5093550;28;20476;-84
2022/05/25 12:21:15;;;;;;;1999.90;551.42;;;15.70;99.90;;;;;;5093207;28;20069;-83
2022/05/25 12:23:51;;;;;;;1999.90;843.42;;;16.00;89.00;;;;;;5093049;28;20451;-82
2022/05/25 12:26:26;;;;;;;1999.90;838.20;;;16.40;45.00;;;;;;5111908;28;20054;-83
2022/05/25 12:29:06;;;;;;;1999.90;999.90;;;16.70;6.50;;;;;;5093332;28;20044;-83
2022/05/25 12:31:33;;;;;;;1999.90;999.90;;;16.80;1.00;;;;;;5112248;28;20047;-82
2022/05/25 12:33:59;;;;;;;1932.13;999.90;;;16.90;1.00;;;;;;5093438;28;20356;-83
2022/05/25 12:36:26;;;;;;;1900.30;999.90;;;17.00;1.00;;;;;;5111379;28;20043;-82
2022/05/25 12:38:53;;;;;;;1999.90;999.90;;;17.20;1.00;;;;;;5091723;28;20054;-84
2022/05/25 12:41:31;;;;;;;1999.90;999.90;;;17.20;1.00;;;;;;5111296;28;20043;-82
2022/05/25 12:43:59;;;;;;;1999.90;999.90;;;17.40;1.00;;;;;;5111076;28;20052;-82
2022/05/25 12:49:51;;;;;;;1918.15;999.90;;;17.60;1.00;;;;;;5008309;28;20042;-83
2022/05/25 12:52:43;;;;;;;1502.50;999.90;;;17.60;1.00;;;;;;5008731;28;20049;-83
2022/05/25 12:55:31;;;;;;;1576.18;999.90;;;17.60;1.00;;;;;;5070213;28;20091;-83